CYQX

Gander International Airport

Gander, Canada
METAR CYQX 211500Z 28015G23KT 20SM OVC016 02/M01 A2955 RMK SC8 OCNL-SHSN SLP014
Observed Flight Rules
Apr-21 @ 15:00 UTC (35 minutes ago) Marginal Visual Flight Rules
Wind Visibility Clouds
280° at 15 knots
 Gusting to 23 knots
20 miles
  • Overcast at 1,600' AGL
Temperatures Readings
Current 2°C / 36°F
Dewpoint -1°C / 30°F
Humidity 81%
Altimeter 29.55" Hg
Pressure 1001.4 hPa
Elevation 151
METAR CYQX 211500Z 28015G23KT 20SM OVC016 02/M01 A2955 RMK SC8 OCNL-SHSN SLP014
Observed Flight Rules
Apr-21 @ 15:00 UTC
(35 minutes ago)
MVFR
Wind Visibility
280° at 15 knots
 Gusting to 23 knots
20 miles
Clouds
  • Overcast at 1,600' AGL
Temperature Dewpoint
2°C / 36°F -1°C / 30°F
Humidity Altimeter Pressure
81% 29.55" Hg 1001.4 hPa